createdAt,value
2018-09-23T00:00:36.364Z,101206.86
2018-09-23T00:03:04.917Z,101212.25
2018-09-23T00:05:33.857Z,101209.55
2018-09-23T00:08:02.075Z,101194.05
2018-09-23T00:10:30.258Z,101190.02
2018-09-23T00:12:58.472Z,101189.13
2018-09-23T00:15:26.656Z,101187.41
2018-09-23T00:17:55.151Z,101168.92
2018-09-23T00:20:23.309Z,101162.68
2018-09-23T00:22:51.510Z,101164.20
2018-09-23T00:25:31.814Z,101162.86
2018-09-23T00:28:00.089Z,101165.67
2018-09-23T00:30:28.641Z,101169.34
2018-09-23T00:32:56.909Z,101174.94
2018-09-23T00:35:25.461Z,101183.64
2018-09-23T00:37:54.094Z,101172.30
2018-09-23T00:40:25.244Z,101169.23
2018-09-23T00:42:53.598Z,101165.19
2018-09-23T00:45:22.216Z,101173.27
2018-09-23T00:47:50.366Z,101168.27
2018-09-23T00:50:18.535Z,101160.06
2018-09-23T00:52:46.761Z,101158.63
2018-09-23T00:55:15.273Z,101159.47
2018-09-23T00:57:43.807Z,101158.13
2018-09-23T01:00:12.038Z,101148.81
2018-09-23T01:02:40.535Z,101143.81
2018-09-23T01:05:08.699Z,101147.85
2018-09-23T01:07:36.909Z,101147.09
2018-09-23T01:10:05.229Z,101137.28
2018-09-23T01:12:33.402Z,101134.38
2018-09-23T01:15:01.921Z,101128.87
2018-09-23T01:17:30.082Z,101118.09
2018-09-23T01:19:58.594Z,101129.84
2018-09-23T01:22:27.094Z,101129.75
2018-09-23T01:24:55.285Z,101128.41
2018-09-23T01:27:23.904Z,101138.94
2018-09-23T01:29:52.301Z,101131.87
2018-09-23T01:32:20.742Z,101131.02
2018-09-23T01:34:49.237Z,101134.80
2018-09-23T01:37:18.013Z,101128.66
2018-09-23T01:39:46.518Z,101122.89
2018-09-23T01:42:14.670Z,101120.20
2018-09-23T01:44:42.889Z,101107.91
2018-09-23T01:47:11.063Z,101102.13
2018-09-23T01:49:39.285Z,101100.53
2018-09-23T01:52:07.445Z,101091.59
2018-09-23T01:54:35.613Z,101088.53
2018-09-23T01:57:06.017Z,101093.80
2018-09-23T01:59:34.524Z,101084.63
2018-09-23T02:02:03.037Z,101082.22
2018-09-23T02:04:31.592Z,101083.56
2018-09-23T02:06:59.966Z,101085.29
2018-09-23T02:09:28.186Z,101085.92
2018-09-23T02:11:56.729Z,101077.59
2018-09-23T02:14:25.453Z,101083.95
2018-09-23T02:16:53.978Z,101091.83
2018-09-23T02:19:22.580Z,101077.00
2018-09-23T02:21:51.264Z,101076.63
2018-09-23T02:24:19.429Z,101076.63
2018-09-23T02:26:47.587Z,101074.31
2018-09-23T02:29:15.949Z,101074.80
2018-09-23T02:31:44.101Z,101072.02
2018-09-23T02:34:12.605Z,101068.83
2018-09-23T02:36:41.106Z,101066.30
2018-09-23T02:39:10.658Z,101054.30
2018-09-23T02:41:38.901Z,101054.80
2018-09-23T02:44:07.333Z,101052.70
2018-09-23T02:46:35.708Z,101054.64
2018-09-23T02:49:04.205Z,101048.44
2018-09-23T02:51:32.737Z,101044.43
2018-09-23T02:54:01.026Z,101048.34
2018-09-23T02:56:29.183Z,101040.73
2018-09-23T02:58:58.128Z,101035.00
2018-09-23T03:01:26.289Z,101029.39
2018-09-23T03:03:54.458Z,101023.41
2018-09-23T03:06:23.324Z,101021.92
2018-09-23T03:08:51.814Z,101023.27
2018-09-23T03:11:20.001Z,101023.66
2018-09-23T03:13:48.573Z,101017.51
2018-09-23T03:16:16.745Z,101021.83
2018-09-23T03:18:44.903Z,101014.62
2018-09-23T03:21:13.133Z,101013.73
2018-09-23T03:23:41.290Z,101004.80
2018-09-23T03:26:09.634Z,101004.94
2018-09-23T03:28:38.121Z,100995.59
2018-09-23T03:31:06.399Z,101007.00
2018-09-23T03:33:34.761Z,101009.09
2018-09-23T03:36:03.243Z,101002.13
2018-09-23T03:38:31.400Z,101008.25
2018-09-23T03:40:59.557Z,100997.73
2018-09-23T03:43:27.733Z,101002.03
2018-09-23T03:45:56.027Z,100995.30
2018-09-23T03:48:24.493Z,100979.20
2018-09-23T03:50:52.871Z,100976.52
2018-09-23T03:53:21.294Z,100970.22
2018-09-23T03:55:49.982Z,100973.55
2018-09-23T03:58:18.167Z,100964.59
2018-09-23T04:00:46.437Z,100966.44
2018-09-23T04:03:14.610Z,100955.28
2018-09-23T04:05:42.814Z,100947.44
2018-09-23T04:08:11.337Z,100941.91
2018-09-23T04:10:39.875Z,100944.14
2018-09-23T04:13:08.061Z,100932.01
2018-09-23T04:15:36.567Z,100918.75
2018-09-23T04:18:05.050Z,100899.03
2018-09-23T04:20:33.656Z,100911.16
2018-09-23T04:23:02.548Z,100892.77
2018-09-23T04:25:30.915Z,100890.20
2018-09-23T04:27:59.441Z,100894.84
2018-09-23T04:30:27.926Z,100912.96
2018-09-23T04:32:56.098Z,100905.97
2018-09-23T04:35:24.592Z,100904.01
2018-09-23T04:37:53.198Z,100929.24
2018-09-23T04:40:21.361Z,100938.67
2018-09-23T04:42:50.063Z,100928.87
2018-09-23T04:45:18.559Z,100927.17
2018-09-23T04:47:50.302Z,100919.56
2018-09-23T04:50:20.229Z,100922.25
2018-09-23T04:52:49.370Z,100916.27
2018-09-23T04:55:19.699Z,100925.48
2018-09-23T04:57:48.653Z,100926.19
2018-09-23T05:00:18.839Z,100931.48
2018-09-23T05:02:49.685Z,100917.88
2018-09-23T05:05:21.198Z,100906.97
2018-09-23T05:07:51.977Z,100898.78
2018-09-23T05:10:20.562Z,100896.44
2018-09-23T05:12:49.138Z,100905.77
2018-09-23T05:15:17.290Z,100906.24
2018-09-23T05:17:45.466Z,100913.48
2018-09-23T05:20:13.952Z,100906.97
2018-09-23T05:22:42.456Z,100906.12
2018-09-23T05:25:10.625Z,100896.31
2018-09-23T05:27:38.781Z,100893.86
2018-09-23T05:30:07.041Z,100893.73
2018-09-23T05:32:35.557Z,100901.48
2018-09-23T05:35:03.957Z,100890.55
2018-09-23T05:37:32.175Z,100893.00
2018-09-23T05:40:00.588Z,100902.44
2018-09-23T05:42:28.772Z,100900.84
2018-09-23T05:44:56.941Z,100904.98
2018-09-23T05:47:25.126Z,100903.77
2018-09-23T05:49:53.275Z,100904.27
2018-09-23T05:52:21.429Z,100912.45
2018-09-23T05:54:49.640Z,100907.94
2018-09-23T05:57:17.785Z,100908.31
2018-09-23T05:59:46.002Z,100909.53
2018-09-23T06:02:14.530Z,100901.44
2018-09-23T06:04:42.972Z,100906.33
2018-09-23T06:07:11.670Z,100900.84
2018-09-23T06:09:40.446Z,100894.10
2018-09-23T06:12:08.877Z,100893.84
2018-09-23T06:14:37.223Z,100888.00
2018-09-23T06:17:05.558Z,100880.41
2018-09-23T06:19:33.762Z,100884.33
2018-09-23T06:22:02.289Z,100871.61
2018-09-23T06:24:30.479Z,100866.56
2018-09-23T06:26:58.858Z,100866.20
2018-09-23T06:29:27.201Z,100852.11
2018-09-23T06:31:55.368Z,100853.70
2018-09-23T06:34:24.205Z,100864.13
2018-09-23T06:36:52.715Z,100872.13
2018-09-23T06:39:21.372Z,100877.25
2018-09-23T06:41:49.593Z,100867.68
2018-09-23T06:44:18.266Z,100857.02
2018-09-23T06:46:46.548Z,100840.45
2018-09-23T06:49:14.985Z,100850.64
2018-09-23T06:51:43.182Z,100859.86
2018-09-23T06:54:11.540Z,100863.53
2018-09-23T06:56:39.724Z,100865.13
2018-09-23T06:59:08.337Z,100866.34
2018-09-23T07:01:37.214Z,100868.91
2018-09-23T07:04:05.817Z,100865.97
2018-09-23T07:06:34.444Z,100869.66
2018-09-23T07:09:02.650Z,100881.80
2018-09-23T07:11:33.686Z,100886.45
2018-09-23T07:14:02.221Z,100884.73
2018-09-23T07:16:30.600Z,100892.70
2018-09-23T07:18:58.805Z,100880.92
2018-09-23T07:21:27.495Z,100872.08
2018-09-23T07:23:56.485Z,100857.09
2018-09-23T07:26:24.894Z,100845.31
2018-09-23T07:28:53.093Z,100843.87
2018-09-23T07:31:21.595Z,100842.76
2018-09-23T07:33:50.096Z,100838.48
2018-09-23T07:36:18.262Z,100842.66
2018-09-23T07:38:46.778Z,100821.67
2018-09-23T07:41:14.930Z,100826.47
2018-09-23T07:43:43.121Z,100821.44
2018-09-23T07:46:11.253Z,100829.63
2018-09-23T07:48:39.421Z,100829.02
2018-09-23T07:51:07.602Z,100825.58
2018-09-23T07:53:36.642Z,100815.77
2018-09-23T07:56:04.852Z,100831.59
2018-09-23T07:58:33.173Z,100816.03
2018-09-23T08:01:01.411Z,100803.61
2018-09-23T08:03:29.598Z,100814.17
2018-09-23T08:05:58.513Z,100824.23
2018-09-23T08:08:26.998Z,100814.77
2018-09-23T08:10:55.573Z,100822.12
2018-09-23T08:13:24.146Z,100822.86
2018-09-23T08:15:52.770Z,100827.62
2018-09-23T08:18:20.956Z,100825.05
2018-09-23T08:20:49.172Z,100824.42
2018-09-23T08:23:17.878Z,100807.22
2018-09-23T08:25:46.281Z,100797.38
2018-09-23T08:28:14.917Z,100795.42
2018-09-23T08:30:43.105Z,100783.95
2018-09-23T08:33:11.590Z,100773.26
2018-09-23T08:35:40.180Z,100768.30
2018-09-23T08:38:08.587Z,100766.70
2018-09-23T08:40:37.104Z,100768.53
2018-09-23T08:43:05.685Z,100771.83
2018-09-23T08:45:33.972Z,100770.00
2018-09-23T08:48:02.152Z,100768.53
2018-09-23T08:50:30.693Z,100768.59
2018-09-23T08:52:58.850Z,100758.39
2018-09-23T08:55:27.252Z,100759.37
2018-09-23T08:57:55.736Z,100746.38
2018-09-23T09:00:27.332Z,100732.61
2018-09-23T09:03:04.053Z,100746.27
2018-09-23T09:05:32.525Z,100751.27
2018-09-23T09:08:01.692Z,100734.28
2018-09-23T09:10:29.869Z,100740.35
2018-09-23T09:12:58.119Z,100754.45
2018-09-23T09:15:29.455Z,100745.95
2018-09-23T09:18:01.145Z,100739.93
2018-09-23T09:20:29.629Z,100716.59
2018-09-23T09:22:57.802Z,100707.27
2018-09-23T09:25:25.987Z,100705.52
2018-09-23T09:27:54.153Z,100711.66
2018-09-23T09:30:22.955Z,100708.41
2018-09-23T09:32:51.469Z,100710.93
2018-09-23T09:35:20.019Z,100700.11
2018-09-23T09:37:48.409Z,100697.19
2018-09-23T09:40:16.789Z,100687.29
2018-09-23T09:42:44.968Z,100695.14
2018-09-23T09:45:13.326Z,100707.82
2018-09-23T09:47:41.824Z,100707.31
2018-09-23T09:50:09.978Z,100685.94
2018-09-23T09:52:38.138Z,100687.98
2018-09-23T09:55:06.686Z,100691.28
2018-09-23T09:57:35.181Z,100663.77
2018-09-23T10:00:05.126Z,100647.80
2018-09-23T10:02:33.320Z,100667.59
2018-09-23T10:05:01.886Z,100680.34
2018-09-23T10:07:30.401Z,100688.57
2018-09-23T10:09:58.541Z,100678.85
2018-09-23T10:12:26.775Z,100688.39
2018-09-23T10:14:54.945Z,100704.09
2018-09-23T10:17:23.449Z,100698.06
2018-09-23T10:20:04.188Z,100681.54
2018-09-23T10:22:33.574Z,100673.64
2018-09-23T10:25:01.891Z,100659.02
2018-09-23T10:27:30.061Z,100657.66
2018-09-23T10:29:58.214Z,100664.76
2018-09-23T10:32:28.073Z,100646.84
2018-09-23T10:34:56.230Z,100646.19
2018-09-23T10:37:24.433Z,100649.25
2018-09-23T10:39:52.602Z,100672.76
2018-09-23T10:42:20.928Z,100687.75
2018-09-23T10:44:50.925Z,100672.55
2018-09-23T10:47:20.029Z,100671.81
2018-09-23T10:49:48.177Z,100660.27
2018-09-23T10:52:16.374Z,100642.47
2018-09-23T10:54:44.552Z,100636.97
2018-09-23T10:57:12.804Z,100619.11
2018-09-23T10:59:41.111Z,100623.06
2018-09-23T11:02:17.048Z,100640.89
2018-09-23T11:04:47.689Z,100663.55
2018-09-23T11:07:16.190Z,100671.14
2018-09-23T11:09:44.568Z,100674.06
2018-09-23T11:12:12.914Z,100676.41
2018-09-23T11:14:41.415Z,100662.89
2018-09-23T11:17:09.922Z,100654.08
2018-09-23T11:19:39.108Z,100643.89
2018-09-23T11:22:11.142Z,100631.26
2018-09-23T11:24:39.302Z,100617.67
2018-09-23T11:27:07.672Z,100597.66
2018-09-23T11:29:36.352Z,100604.56
2018-09-23T11:32:05.113Z,100598.17
2018-09-23T11:34:33.269Z,100601.59
2018-09-23T11:37:01.970Z,100597.77
2018-09-23T11:39:30.126Z,100605.88
2018-09-23T11:41:58.641Z,100618.25
2018-09-23T11:47:55.585Z,100630.52
2018-09-23T11:50:23.746Z,100653.58
2018-09-23T11:52:52.259Z,100621.62
2018-09-23T11:55:21.245Z,100607.48
2018-09-23T11:57:49.805Z,100581.03
2018-09-23T12:00:18.319Z,100560.34
2018-09-23T12:02:48.184Z,100554.10
2018-09-23T12:05:19.694Z,100535.23
2018-09-23T12:07:48.925Z,100529.61
2018-09-23T12:10:17.461Z,100557.41
2018-09-23T12:12:46.166Z,100568.80
2018-09-23T12:15:14.528Z,100547.12
2018-09-23T12:17:43.218Z,100551.52
2018-09-23T12:20:11.567Z,100543.91
2018-09-23T12:22:39.991Z,100526.86
2018-09-23T12:25:08.360Z,100511.21
2018-09-23T12:27:36.522Z,100531.84
2018-09-23T12:30:06.136Z,100583.73
2018-09-23T12:35:19.969Z,100551.06
2018-09-23T12:37:48.669Z,100564.84
2018-09-23T12:40:17.245Z,100562.28
2018-09-23T12:42:45.468Z,100548.14
2018-09-23T12:45:13.620Z,100535.73
2018-09-23T12:47:43.407Z,100516.08
2018-09-23T12:50:11.896Z,100464.87
2018-09-23T12:52:40.481Z,100456.19
2018-09-23T12:55:09.017Z,100447.47
2018-09-23T12:57:37.203Z,100432.55
2018-09-23T13:00:05.425Z,100441.91
2018-09-23T13:02:33.964Z,100467.23
2018-09-23T13:05:02.639Z,100488.95
2018-09-23T13:07:31.302Z,100515.84
2018-09-23T13:09:59.808Z,100537.16
2018-09-23T13:12:28.189Z,100512.16
2018-09-23T13:14:56.359Z,100467.60
2018-09-23T13:17:25.078Z,100505.88
2018-09-23T13:19:53.257Z,100536.42
2018-09-23T13:22:21.580Z,100520.84
2018-09-23T13:24:49.979Z,100525.88
2018-09-23T13:27:18.343Z,100528.07
2018-09-23T13:29:46.616Z,100523.18
2018-09-23T13:32:15.111Z,100513.58
2018-09-23T13:34:43.278Z,100514.45
2018-09-23T13:37:11.778Z,100517.27
2018-09-23T13:39:39.942Z,100500.84
2018-09-23T13:42:08.365Z,100476.99
2018-09-23T13:44:36.760Z,100470.94
2018-09-23T13:47:05.528Z,100495.27
2018-09-23T13:49:34.201Z,100506.32
2018-09-23T13:52:02.895Z,100522.44
2018-09-23T13:54:31.198Z,100538.15
2018-09-23T13:56:59.801Z,100523.09
2018-09-23T13:59:28.458Z,100518.67
2018-09-23T14:01:57.005Z,100522.61
2018-09-23T14:04:25.189Z,100516.45
2018-09-23T14:06:53.513Z,100524.23
2018-09-23T14:09:22.086Z,100539.19
2018-09-23T14:11:50.941Z,100540.08
2018-09-23T14:14:19.191Z,100532.30
2018-09-23T14:16:47.497Z,100531.06
2018-09-23T14:19:15.709Z,100490.67
2018-09-23T14:21:44.243Z,100478.63
2018-09-23T14:24:12.725Z,100497.01
2018-09-23T14:26:41.064Z,100515.19
2018-09-23T14:29:09.258Z,100546.39
2018-09-23T14:31:37.781Z,100553.98
2018-09-23T14:34:06.360Z,100558.14
2018-09-23T14:36:34.560Z,100568.54
2018-09-23T14:39:04.343Z,100560.25
2018-09-23T14:41:32.473Z,100556.16
2018-09-23T14:44:01.193Z,100566.34
2018-09-23T14:46:29.670Z,100528.27
2018-09-23T14:48:58.048Z,100529.22
2018-09-23T14:51:26.801Z,100567.47
2018-09-23T14:53:54.964Z,100555.74
2018-09-23T14:56:23.125Z,100565.16
2018-09-23T14:58:51.373Z,100579.51
2018-09-23T15:01:20.024Z,100573.52
2018-09-23T15:03:48.285Z,100586.05
2018-09-23T15:06:17.712Z,100590.03
2018-09-23T15:08:46.233Z,100598.58
2018-09-23T15:11:16.242Z,100598.26
2018-09-23T15:13:45.782Z,100599.17
2018-09-23T15:16:15.248Z,100599.20
2018-09-23T15:18:46.070Z,100593.77
2018-09-23T15:21:16.929Z,100602.73
2018-09-23T15:23:50.024Z,100618.77
2018-09-23T15:26:18.493Z,100622.16
2018-09-23T15:28:47.038Z,100613.41
2018-09-23T15:31:15.726Z,100609.61
2018-09-23T15:33:43.871Z,100605.17
2018-09-23T15:36:12.101Z,100611.08
2018-09-23T15:38:40.305Z,100602.63
2018-09-23T15:41:09.144Z,100581.09
2018-09-23T15:43:37.886Z,100576.59
2018-09-23T15:46:06.697Z,100585.44
2018-09-23T15:48:34.845Z,100600.66
2018-09-23T15:51:03.059Z,100608.25
2018-09-23T15:53:31.402Z,100617.98
2018-09-23T15:55:59.897Z,100638.48
2018-09-23T15:58:28.542Z,100649.64
2018-09-23T16:00:57.280Z,100654.67
2018-09-23T16:03:25.454Z,100659.33
2018-09-23T16:05:53.603Z,100664.01
2018-09-23T16:08:21.820Z,100671.95
2018-09-23T16:10:50.016Z,100676.59
2018-09-23T16:13:18.270Z,100683.57
2018-09-23T16:15:49.101Z,100682.73
2018-09-23T16:18:17.632Z,100681.66
2018-09-23T16:20:45.977Z,100683.33
2018-09-23T16:23:14.138Z,100688.95
2018-09-23T16:25:42.296Z,100688.34
2018-09-23T16:28:11.577Z,100698.38
2018-09-23T16:30:40.164Z,100690.42
2018-09-23T16:33:09.189Z,100697.05
2018-09-23T16:35:40.048Z,100701.45
2018-09-23T16:38:08.813Z,100711.96
2018-09-23T16:40:38.908Z,100720.05
2018-09-23T16:43:08.688Z,100731.33
2018-09-23T16:45:36.949Z,100742.53
2018-09-23T16:48:05.451Z,100755.14
2018-09-23T16:50:34.289Z,100762.38
2018-09-23T16:53:02.604Z,100772.06
2018-09-23T16:55:40.102Z,100775.14
2018-09-23T16:58:08.277Z,100780.05
2018-09-23T17:00:36.527Z,100786.63
2018-09-23T17:03:05.738Z,100793.75
2018-09-23T17:05:34.288Z,100801.61
2018-09-23T17:08:02.537Z,100812.63
2018-09-23T17:10:30.981Z,100817.03
2018-09-23T17:12:59.157Z,100836.53
2018-09-23T17:15:27.341Z,100847.84
2018-09-23T17:17:55.828Z,100851.38
2018-09-23T17:20:24.186Z,100852.23
2018-09-23T17:22:52.464Z,100840.95
2018-09-23T17:25:21.097Z,100831.39
2018-09-23T17:27:49.555Z,100855.39
2018-09-23T17:30:17.747Z,100857.94
2018-09-23T17:32:46.076Z,100864.66
2018-09-23T17:35:14.774Z,100870.92
2018-09-23T17:37:43.168Z,100868.85
2018-09-23T17:40:11.565Z,100879.50
2018-09-23T17:42:39.766Z,100896.41
2018-09-23T17:45:07.969Z,100910.45
2018-09-23T17:47:36.144Z,100912.05
2018-09-23T17:50:04.311Z,100905.22
2018-09-23T17:52:32.818Z,100921.26
2018-09-23T17:55:01.038Z,100926.00
2018-09-23T17:57:29.596Z,100932.05
2018-09-23T17:59:58.072Z,100932.77
2018-09-23T18:02:26.873Z,100939.27
2018-09-23T18:04:55.065Z,100940.84
2018-09-23T18:07:23.825Z,100942.73
2018-09-23T18:09:55.365Z,100955.02
2018-09-23T18:12:23.602Z,100948.62
2018-09-23T18:14:52.142Z,100951.80
2018-09-23T18:17:20.370Z,100946.80
2018-09-23T18:19:48.529Z,100947.52
2018-09-23T18:22:17.045Z,100965.22
2018-09-23T18:24:45.558Z,100982.55
2018-09-23T18:27:13.776Z,100997.97
2018-09-23T18:29:41.980Z,101005.34
2018-09-23T18:32:10.145Z,101008.73
2018-09-23T18:34:38.320Z,101015.55
2018-09-23T18:37:06.884Z,101035.01
2018-09-23T18:39:35.440Z,101028.74
2018-09-23T18:42:03.850Z,101036.35
2018-09-23T18:44:32.064Z,101048.67
2018-09-23T18:47:00.403Z,101046.80
2018-09-23T18:49:28.877Z,101053.55
2018-09-23T18:51:57.361Z,101061.47
2018-09-23T18:54:31.170Z,101072.35
2018-09-23T18:56:59.535Z,101081.39
2018-09-23T18:59:30.084Z,101096.77
2018-09-23T19:01:58.601Z,101098.69
2018-09-23T19:04:26.913Z,101111.37
2018-09-23T19:06:55.658Z,101121.29
2018-09-23T19:09:23.825Z,101121.83
2018-09-23T19:11:52.243Z,101124.13
2018-09-23T19:14:20.393Z,101126.00
2018-09-23T19:16:48.550Z,101138.37
2018-09-23T19:19:16.707Z,101138.37
2018-09-23T19:21:45.205Z,101143.75
2018-09-23T19:24:13.362Z,101147.41
2018-09-23T19:26:41.871Z,101155.59
2018-09-23T19:29:10.353Z,101165.98
2018-09-23T19:31:38.620Z,101163.28
2018-09-23T19:34:06.761Z,101166.67
2018-09-23T19:36:35.221Z,101178.78
2018-09-23T19:39:04.078Z,101195.30
2018-09-23T19:41:32.732Z,101194.08
2018-09-23T19:44:04.490Z,101200.88
2018-09-23T19:46:34.021Z,101196.00
2018-09-23T19:49:02.179Z,101215.59
2018-09-23T19:51:30.306Z,101220.45
2018-09-23T19:53:58.517Z,101229.40
2018-09-23T19:56:26.661Z,101235.94
2018-09-23T19:58:55.318Z,101247.89
2018-09-23T20:01:23.825Z,101251.62
2018-09-23T20:03:51.974Z,101260.69
2018-09-23T20:06:20.141Z,101254.23
2018-09-23T20:08:48.318Z,101254.61
2018-09-23T20:11:16.811Z,101257.19
2018-09-23T20:13:45.009Z,101258.04
2018-09-23T20:16:13.178Z,101254.66
2018-09-23T20:18:41.816Z,101270.80
2018-09-23T20:21:10.298Z,101270.80
2018-09-23T20:23:38.534Z,101275.23
2018-09-23T20:26:06.680Z,101287.14
2018-09-23T20:28:35.043Z,101285.91
2018-09-23T20:31:03.178Z,101294.67
2018-09-23T20:33:31.371Z,101303.59
2018-09-23T20:35:59.916Z,101308.40
2018-09-23T20:38:28.216Z,101315.98
2018-09-23T20:40:56.353Z,101325.89
2018-09-23T20:43:24.919Z,101324.93
2018-09-23T20:45:53.127Z,101331.94
2018-09-23T20:48:21.321Z,101339.89
2018-09-23T20:50:49.493Z,101338.84
2018-09-23T20:53:17.652Z,101347.88
2018-09-23T20:55:46.154Z,101354.83
2018-09-23T20:58:14.321Z,101359.94
2018-09-23T21:00:43.397Z,101368.30
2018-09-23T21:03:14.294Z,101362.34
2018-09-23T21:05:43.853Z,101372.63
2018-09-23T21:08:12.623Z,101378.98
2018-09-23T21:10:40.761Z,101378.77
2018-09-23T21:13:10.045Z,101380.61
2018-09-23T21:15:39.228Z,101384.54
2018-09-23T21:18:08.052Z,101396.92
2018-09-23T21:20:36.217Z,101410.30
2018-09-23T21:23:04.553Z,101406.34
2018-09-23T21:25:32.718Z,101409.91
2018-09-23T21:28:01.066Z,101419.05
2018-09-23T21:30:29.557Z,101419.02
2018-09-23T21:32:58.044Z,101433.37
2018-09-23T21:35:26.544Z,101436.05
2018-09-23T21:37:54.894Z,101436.23
2018-09-23T21:40:23.081Z,101443.91
2018-09-23T21:42:52.097Z,101448.62
2018-09-23T21:45:20.270Z,101453.16
2018-09-23T21:47:49.083Z,101464.76
2018-09-23T21:50:20.185Z,101462.25
2018-09-23T21:52:50.396Z,101465.82
2018-09-23T21:55:20.138Z,101469.17
2018-09-23T21:57:50.005Z,101482.91
2018-09-23T22:00:18.925Z,101480.87
2018-09-23T22:02:47.476Z,101484.20
2018-09-23T22:05:16.656Z,101490.04
2018-09-23T22:07:52.057Z,101495.34
2018-09-23T22:10:20.208Z,101502.62
2018-09-23T22:12:48.373Z,101496.75
2018-09-23T22:15:21.925Z,101500.78
2018-09-23T22:17:50.265Z,101506.83
2018-09-23T22:20:18.480Z,101510.08
2018-09-23T22:22:46.957Z,101509.22
2018-09-23T22:25:15.410Z,101520.04
2018-09-23T22:27:43.636Z,101516.40
2018-09-23T22:30:11.851Z,101525.42
2018-09-23T22:32:40.136Z,101529.09
2018-09-23T22:35:08.838Z,101537.52
2018-09-23T22:37:37.364Z,101543.77
2018-09-23T22:40:06.847Z,101546.92
2018-09-23T22:42:36.534Z,101553.61
2018-09-23T22:45:05.334Z,101554.56
2018-09-23T22:47:33.493Z,101563.61
2018-09-23T22:50:03.065Z,101564.95
2018-09-23T22:52:31.570Z,101574.66
2018-09-23T22:54:59.713Z,101584.12
2018-09-23T22:57:28.226Z,101588.09
2018-09-23T22:59:56.744Z,101591.23
2018-09-23T23:02:25.103Z,101596.02
2018-09-23T23:04:53.274Z,101601.11
2018-09-23T23:07:21.984Z,101605.56
2018-09-23T23:09:50.401Z,101609.20
2018-09-23T23:12:18.924Z,101604.05
2018-09-23T23:14:47.124Z,101606.45
2018-09-23T23:17:16.336Z,101619.09
2018-09-23T23:19:44.822Z,101622.83
2018-09-23T23:22:13.344Z,101621.09
2018-09-23T23:24:42.113Z,101628.27
2018-09-23T23:27:10.268Z,101633.64
2018-09-23T23:29:38.409Z,101637.66
2018-09-23T23:32:07.360Z,101630.66
2018-09-23T23:34:36.113Z,101642.19
2018-09-23T23:37:05.085Z,101642.74
2018-09-23T23:39:33.227Z,101650.41
2018-09-23T23:42:01.394Z,101653.34
2018-09-23T23:44:29.549Z,101660.56
2018-09-23T23:46:58.278Z,101666.32
2018-09-23T23:49:26.765Z,101680.01
2018-09-23T23:51:55.275Z,101678.13
2018-09-23T23:54:23.773Z,101675.39
2018-09-23T23:56:52.270Z,101689.61
2018-09-23T23:59:20.417Z,101693.80
